createdAt,value
2022-08-17T00:00:43.601Z,19.92
2022-08-17T00:03:15.187Z,18.45
2022-08-17T00:05:48.498Z,18.48
2022-08-17T00:08:18.924Z,18.33
2022-08-17T00:10:50.140Z,19.02
2022-08-17T00:13:24.185Z,20.02
2022-08-17T00:15:53.949Z,18.50
2022-08-17T00:19:06.395Z,19.77
2022-08-17T00:21:13.440Z,20.50
2022-08-17T00:23:48.995Z,19.95
2022-08-17T00:26:44.242Z,21.27
2022-08-17T00:29:08.964Z,21.25
2022-08-17T00:31:38.398Z,19.63
2022-08-17T00:34:08.893Z,20.53
2022-08-17T00:36:37.992Z,19.95
2022-08-17T00:39:06.816Z,19.25
2022-08-17T00:41:40.094Z,20.30
2022-08-17T00:44:12.396Z,19.98
2022-08-17T00:46:43.193Z,20.40
2022-08-17T00:49:15.760Z,20.65
2022-08-17T00:51:48.061Z,19.23
2022-08-17T00:54:20.668Z,20.85
2022-08-17T00:56:55.236Z,21.00
2022-08-17T00:59:26.901Z,20.02
2022-08-17T01:01:55.278Z,20.45
2022-08-17T01:04:24.236Z,20.67
2022-08-17T01:06:53.232Z,19.80
2022-08-17T01:09:22.388Z,19.45
2022-08-17T01:11:53.162Z,20.40
2022-08-17T01:14:22.476Z,21.30
2022-08-17T01:16:52.360Z,21.50
2022-08-17T01:21:54.016Z,21.15
2022-08-17T01:24:24.133Z,20.75
2022-08-17T01:26:52.829Z,20.50
2022-08-17T01:29:25.856Z,21.48
2022-08-17T01:31:56.492Z,20.13
2022-08-17T01:34:35.100Z,20.92
2022-08-17T01:37:12.692Z,20.83
2022-08-17T01:39:45.942Z,19.87
2022-08-17T01:42:20.060Z,21.77
2022-08-17T01:44:48.948Z,20.88
2022-08-17T01:47:17.742Z,20.20
2022-08-17T01:49:46.204Z,20.42
2022-08-17T01:52:15.292Z,20.90
2022-08-17T01:54:47.259Z,22.08
2022-08-17T01:57:16.424Z,20.65
2022-08-17T01:59:45.249Z,20.15
2022-08-17T02:02:30.573Z,21.17
2022-08-17T02:05:00.244Z,20.80
2022-08-17T02:07:29.187Z,21.15
2022-08-17T02:09:59.625Z,20.20
2022-08-17T02:12:37.624Z,19.38
2022-08-17T02:15:12.489Z,19.77
2022-08-17T02:17:41.847Z,20.13
2022-08-17T02:20:11.856Z,19.40
2022-08-17T02:22:41.619Z,21.25
2022-08-17T02:25:13.684Z,21.33
2022-08-17T02:27:42.408Z,19.83
2022-08-17T02:31:01.409Z,20.48
2022-08-17T02:33:04.239Z,19.00
2022-08-17T02:35:35.016Z,19.38
2022-08-17T02:38:06.175Z,19.17
2022-08-17T02:40:37.418Z,18.25
2022-08-17T02:43:06.452Z,19.25
2022-08-17T02:45:35.485Z,18.63
2022-08-17T02:48:05.461Z,18.55
2022-08-17T02:50:34.548Z,18.52
2022-08-17T02:53:04.759Z,18.10
2022-08-17T02:58:05.858Z,17.85
2022-08-17T03:00:37.187Z,19.08
2022-08-17T03:03:06.995Z,18.38
2022-08-17T03:05:37.125Z,18.10
2022-08-17T03:08:07.098Z,17.70
2022-08-17T03:10:40.167Z,17.83
2022-08-17T03:13:10.318Z,17.85
2022-08-17T03:15:40.763Z,18.45
2022-08-17T03:18:24.638Z,17.27
2022-08-17T03:20:55.331Z,19.80
2022-08-17T03:23:25.589Z,19.88
2022-08-17T03:25:54.950Z,18.17
2022-08-17T03:28:26.324Z,19.73
2022-08-17T03:30:55.235Z,19.10
2022-08-17T03:33:24.005Z,18.75
2022-08-17T03:35:53.249Z,18.30
2022-08-17T03:38:22.136Z,19.08
2022-08-17T03:40:58.527Z,17.70
2022-08-17T03:43:31.082Z,18.13
2022-08-17T03:46:28.402Z,17.70
2022-08-17T03:49:22.071Z,17.20
2022-08-17T03:52:08.454Z,18.73
2022-08-17T03:54:54.718Z,18.60
2022-08-17T03:57:23.446Z,17.13
2022-08-17T03:59:53.925Z,17.60
2022-08-17T04:02:26.074Z,17.23
2022-08-17T04:04:54.619Z,16.10
2022-08-17T04:07:32.099Z,17.50
2022-08-17T04:10:01.138Z,15.27
2022-08-17T04:12:31.453Z,15.10
2022-08-17T04:15:01.671Z,16.13
2022-08-17T04:17:30.783Z,16.45
2022-08-17T04:19:59.490Z,17.20
2022-08-17T04:22:31.204Z,16.40
2022-08-17T04:25:17.466Z,15.52
2022-08-17T04:27:46.337Z,15.40
2022-08-17T04:30:17.176Z,15.43
2022-08-17T04:33:09.852Z,14.98
2022-08-17T04:35:41.411Z,14.20
2022-08-17T04:38:12.089Z,13.68
2022-08-17T04:40:58.408Z,14.15
2022-08-17T04:43:28.369Z,15.38
2022-08-17T04:46:03.067Z,15.02
2022-08-17T04:48:36.973Z,15.35
2022-08-17T04:51:10.182Z,14.23
2022-08-17T04:53:40.505Z,13.75
2022-08-17T04:56:16.104Z,14.90
2022-08-17T04:58:46.292Z,15.05
2022-08-17T05:01:17.623Z,13.43
2022-08-17T05:03:53.392Z,14.75
2022-08-17T05:06:22.301Z,12.88
2022-08-17T05:08:50.907Z,13.00
2022-08-17T05:11:19.789Z,13.35
2022-08-17T05:13:50.457Z,12.18
2022-08-17T05:16:21.875Z,15.88
2022-08-17T05:18:50.982Z,14.30
2022-08-17T05:21:20.671Z,13.48
2022-08-17T05:23:53.960Z,14.35
2022-08-17T05:26:26.925Z,12.27
2022-08-17T05:29:00.401Z,11.70
2022-08-17T05:31:33.139Z,12.52
2022-08-17T05:34:02.034Z,12.02
2022-08-17T05:36:42.368Z,12.25
2022-08-17T05:39:16.881Z,12.43
2022-08-17T05:41:48.493Z,12.38
2022-08-17T05:44:17.985Z,11.48
2022-08-17T05:46:50.630Z,11.35
2022-08-17T05:49:22.608Z,10.00
2022-08-17T05:52:09.796Z,11.68
2022-08-17T05:54:48.602Z,10.85
2022-08-17T05:57:32.896Z,11.23
2022-08-17T06:00:08.480Z,11.20
2022-08-17T06:02:59.121Z,12.55
2022-08-17T06:05:50.621Z,11.98
2022-08-17T06:08:30.390Z,11.85
2022-08-17T06:11:02.002Z,13.10
2022-08-17T06:13:42.884Z,11.48
2022-08-17T06:16:25.946Z,12.20
2022-08-17T06:19:07.929Z,12.35
2022-08-17T06:21:40.542Z,12.90
2022-08-17T06:24:20.423Z,12.30
2022-08-17T06:26:49.892Z,11.35
2022-08-17T06:29:27.137Z,11.67
2022-08-17T06:31:55.591Z,14.27
2022-08-17T06:34:25.713Z,11.35
2022-08-17T06:39:33.926Z,10.45
2022-08-17T06:43:02.055Z,8.85
2022-08-17T06:45:05.315Z,10.13
2022-08-17T06:47:37.907Z,9.88
2022-08-17T06:50:15.651Z,10.18
2022-08-17T06:52:52.589Z,9.70
2022-08-17T06:55:26.333Z,9.80
2022-08-17T06:57:58.739Z,9.35
2022-08-17T07:00:33.631Z,9.15
2022-08-17T07:03:07.134Z,9.75
2022-08-17T07:05:45.635Z,10.60
2022-08-17T07:08:19.605Z,9.52
2022-08-17T07:10:51.182Z,9.35
2022-08-17T07:13:32.698Z,9.05
2022-08-17T07:16:09.325Z,9.90
2022-08-17T07:18:38.056Z,9.52
2022-08-17T07:21:17.974Z,9.60
2022-08-17T07:24:02.351Z,9.80
2022-08-17T07:26:31.022Z,8.90
2022-08-17T07:29:01.107Z,10.40
2022-08-17T07:31:33.579Z,9.68
2022-08-17T07:34:14.611Z,10.27
2022-08-17T07:36:44.736Z,9.30
2022-08-17T07:39:13.525Z,8.77
2022-08-17T07:41:53.047Z,8.82
2022-08-17T07:44:26.394Z,7.13
2022-08-17T07:47:12.910Z,7.20
2022-08-17T07:49:44.782Z,7.22
2022-08-17T07:52:51.409Z,6.75
2022-08-17T07:55:31.872Z,6.82
2022-08-17T07:58:01.929Z,7.22
2022-08-17T08:00:32.004Z,8.38
2022-08-17T08:03:04.919Z,7.30
2022-08-17T08:05:49.870Z,8.20
2022-08-17T08:08:40.905Z,7.38
2022-08-17T08:11:15.408Z,7.07
2022-08-17T08:13:45.879Z,7.57
2022-08-17T08:16:25.132Z,7.18
2022-08-17T08:18:57.793Z,7.72
2022-08-17T08:21:33.287Z,7.43
2022-08-17T08:24:15.665Z,6.88
2022-08-17T08:26:47.922Z,7.45
2022-08-17T08:29:28.470Z,7.65
2022-08-17T08:32:14.991Z,7.40
2022-08-17T08:35:02.314Z,8.60
2022-08-17T08:37:43.179Z,7.13
2022-08-17T08:40:27.046Z,7.45
2022-08-17T08:43:04.648Z,7.50
2022-08-17T08:45:39.762Z,6.60
2022-08-17T08:48:46.073Z,7.22
2022-08-17T08:51:11.974Z,7.18
2022-08-17T08:53:45.974Z,7.00
2022-08-17T08:56:21.450Z,7.07
2022-08-17T08:58:54.829Z,7.32
2022-08-17T09:01:29.785Z,8.98
2022-08-17T09:04:25.733Z,7.32
2022-08-17T09:07:10.188Z,7.22
2022-08-17T09:09:46.276Z,7.35
2022-08-17T09:12:22.881Z,7.53
2022-08-17T09:14:57.011Z,5.95
2022-08-17T09:17:32.679Z,6.68
2022-08-17T09:20:05.432Z,6.53
2022-08-17T09:22:38.458Z,6.30
2022-08-17T09:25:11.262Z,5.65
2022-08-17T09:27:50.020Z,6.38
2022-08-17T09:30:19.600Z,6.82
2022-08-17T09:32:55.378Z,6.68
2022-08-17T09:35:33.773Z,5.93
2022-08-17T09:38:17.633Z,6.25
2022-08-17T09:40:50.973Z,6.10
2022-08-17T09:43:30.670Z,6.55
2022-08-17T09:51:05.843Z,5.10
2022-08-17T09:53:37.325Z,5.25
2022-08-17T09:56:28.479Z,6.47
2022-08-17T09:59:22.564Z,4.70
2022-08-17T10:01:57.141Z,4.90
2022-08-17T10:04:37.870Z,5.10
2022-08-17T10:07:11.612Z,4.63
2022-08-17T10:09:48.936Z,4.50
2022-08-17T10:12:29.933Z,5.57
2022-08-17T10:15:19.175Z,6.22
2022-08-17T10:18:03.970Z,6.32
2022-08-17T10:20:38.071Z,5.18
2022-08-17T10:23:29.560Z,5.47
2022-08-17T10:26:14.226Z,5.20
2022-08-17T10:28:48.394Z,5.25
2022-08-17T10:31:35.963Z,5.63
2022-08-17T10:34:20.314Z,5.10
2022-08-17T10:36:54.799Z,5.55
2022-08-17T10:39:30.671Z,4.85
2022-08-17T10:42:04.921Z,5.47
2022-08-17T10:44:42.544Z,6.03
2022-08-17T10:47:15.478Z,5.63
2022-08-17T10:49:48.027Z,6.45
2022-08-17T10:52:48.563Z,6.32
2022-08-17T10:55:20.123Z,6.00
2022-08-17T10:57:50.818Z,6.97
2022-08-17T11:01:12.922Z,5.30
2022-08-17T11:03:54.938Z,5.90
2022-08-17T11:06:33.515Z,5.78
2022-08-17T11:09:21.696Z,5.30
2022-08-17T11:12:09.297Z,6.15
2022-08-17T11:14:48.632Z,5.70
2022-08-17T11:17:30.511Z,4.68
2022-08-17T11:20:15.288Z,5.30
2022-08-17T11:23:14.742Z,5.25
2022-08-17T11:25:45.114Z,4.68
2022-08-17T11:28:17.971Z,4.65
2022-08-17T11:30:52.103Z,4.57
2022-08-17T11:33:52.496Z,4.05
2022-08-17T11:36:32.337Z,4.13
2022-08-17T11:39:06.201Z,4.90
2022-08-17T11:41:40.548Z,5.10
2022-08-17T11:44:26.868Z,5.22
2022-08-17T11:47:26.738Z,4.25
2022-08-17T11:50:41.821Z,4.72
2022-08-17T11:54:03.524Z,5.30
2022-08-17T11:56:44.673Z,4.97
2022-08-17T11:59:50.631Z,5.00
2022-08-17T12:02:39.019Z,5.25
2022-08-17T12:05:28.442Z,5.07
2022-08-17T12:08:07.231Z,5.70
2022-08-17T12:10:49.922Z,6.45
2022-08-17T12:13:19.861Z,6.28
2022-08-17T12:15:50.626Z,5.78
2022-08-17T12:18:24.645Z,6.75
2022-08-17T12:21:12.230Z,6.68
2022-08-17T12:23:44.590Z,6.75
2022-08-17T12:26:19.578Z,5.93
2022-08-17T12:28:49.364Z,6.30
2022-08-17T12:31:24.672Z,5.65
2022-08-17T12:33:54.231Z,5.45
2022-08-17T12:36:25.943Z,6.50
2022-08-17T12:38:59.674Z,5.18
2022-08-17T12:41:47.152Z,5.00
2022-08-17T12:44:18.293Z,5.97
2022-08-17T12:46:50.734Z,4.65
2022-08-17T12:49:26.585Z,5.55
2022-08-17T12:52:02.168Z,5.20
2022-08-17T12:54:39.313Z,4.93
2022-08-17T12:57:13.787Z,5.20
2022-08-17T12:59:45.194Z,4.65
2022-08-17T13:02:22.236Z,5.68
2022-08-17T13:04:50.771Z,5.38
2022-08-17T13:10:02.984Z,5.32
2022-08-17T13:15:03.016Z,5.43
2022-08-17T13:17:36.074Z,4.82
2022-08-17T13:20:07.010Z,5.25
2022-08-17T13:22:35.371Z,5.20
2022-08-17T13:25:07.492Z,5.40
2022-08-17T13:27:38.422Z,6.22
2022-08-17T13:30:12.891Z,6.30
2022-08-17T13:32:45.028Z,5.38
2022-08-17T13:35:39.386Z,6.97
2022-08-17T13:38:11.424Z,5.85
2022-08-17T13:40:49.165Z,5.25
2022-08-17T13:43:48.654Z,5.88
2022-08-17T13:46:21.979Z,6.03
2022-08-17T13:49:00.317Z,7.18
2022-08-17T13:51:32.758Z,5.97
2022-08-17T13:54:07.858Z,5.95
2022-08-17T13:56:40.920Z,5.45
2022-08-17T13:59:13.871Z,5.70
2022-08-17T14:01:47.442Z,5.20
2022-08-17T14:04:24.982Z,5.97
2022-08-17T14:06:59.958Z,5.20
2022-08-17T14:09:34.890Z,6.78
2022-08-17T14:12:08.647Z,5.80
2022-08-17T14:14:38.878Z,5.13
2022-08-17T14:17:07.897Z,7.00
2022-08-17T14:19:36.845Z,6.28
2022-08-17T14:22:06.462Z,5.53
2022-08-17T14:24:40.000Z,4.88
2022-08-17T14:27:12.130Z,4.72
2022-08-17T14:29:42.686Z,5.00
2022-08-17T14:32:19.258Z,5.05
2022-08-17T14:34:49.654Z,5.32
2022-08-17T14:37:18.713Z,5.13
2022-08-17T14:39:47.586Z,6.18
2022-08-17T14:44:48.779Z,5.55
2022-08-17T14:47:17.596Z,5.35
2022-08-17T14:49:48.467Z,5.30
2022-08-17T14:52:21.931Z,6.53
2022-08-17T14:54:52.396Z,5.20
2022-08-17T14:57:33.196Z,5.40
2022-08-17T15:00:05.238Z,4.80
2022-08-17T15:02:45.597Z,5.30
2022-08-17T15:05:15.756Z,5.90
2022-08-17T15:07:44.719Z,5.60
2022-08-17T15:12:42.394Z,5.70
2022-08-17T15:15:15.120Z,5.45
2022-08-17T15:17:45.917Z,6.53
2022-08-17T15:20:17.170Z,6.72
2022-08-17T15:22:46.546Z,5.82
2022-08-17T15:25:15.776Z,6.03
2022-08-17T15:27:44.600Z,6.43
2022-08-17T15:30:15.719Z,5.73
2022-08-17T15:32:50.864Z,6.35
2022-08-17T15:35:27.068Z,6.20
2022-08-17T15:38:04.913Z,5.97
2022-08-17T15:40:38.060Z,6.03
2022-08-17T15:43:07.541Z,6.13
2022-08-17T15:45:37.702Z,6.43
2022-08-17T15:48:07.004Z,6.07
2022-08-17T15:50:36.245Z,6.60
2022-08-17T15:53:05.547Z,7.35
2022-08-17T15:55:34.555Z,6.85
2022-08-17T15:58:03.430Z,6.78
2022-08-17T16:00:36.432Z,6.87
2022-08-17T16:03:57.342Z,6.97
2022-08-17T16:06:12.197Z,8.32
2022-08-17T16:08:43.826Z,8.27
2022-08-17T16:11:13.873Z,7.13
2022-08-17T16:16:20.709Z,7.32
2022-08-17T16:18:54.705Z,7.95
2022-08-17T16:21:42.932Z,6.28
2022-08-17T16:24:13.232Z,6.45
2022-08-17T16:26:42.476Z,7.25
2022-08-17T16:29:11.586Z,7.72
2022-08-17T16:31:41.958Z,7.45
2022-08-17T16:34:17.045Z,6.93
2022-08-17T16:36:55.741Z,6.47
2022-08-17T16:39:29.204Z,6.47
2022-08-17T16:41:58.556Z,7.25
2022-08-17T16:44:29.101Z,7.00
2022-08-17T16:46:58.370Z,7.28
2022-08-17T16:49:37.465Z,7.75
2022-08-17T16:54:43.919Z,6.55
2022-08-17T16:57:13.669Z,7.38
2022-08-17T16:59:47.839Z,7.35
2022-08-17T17:02:17.598Z,8.38
2022-08-17T17:04:52.189Z,7.68
2022-08-17T17:07:53.434Z,7.38
2022-08-17T17:10:24.720Z,8.07
2022-08-17T17:13:02.006Z,8.30
2022-08-17T17:15:43.196Z,8.30
2022-08-17T17:20:47.519Z,8.43
2022-08-17T17:23:25.077Z,10.85
2022-08-17T17:26:06.655Z,10.57
2022-08-17T17:28:43.536Z,8.93
2022-08-17T17:31:16.360Z,10.68
2022-08-17T17:33:48.431Z,9.20
2022-08-17T17:36:26.697Z,10.23
2022-08-17T17:39:00.251Z,9.52
2022-08-17T17:41:32.058Z,10.32
2022-08-17T17:44:04.444Z,9.75
2022-08-17T17:46:35.479Z,10.23
2022-08-17T17:49:04.736Z,11.07
2022-08-17T17:52:03.668Z,10.50
2022-08-17T17:54:38.300Z,10.80
2022-08-17T17:57:12.227Z,10.25
2022-08-17T17:59:46.455Z,10.57
2022-08-17T18:02:39.714Z,11.02
2022-08-17T18:05:17.626Z,11.13
2022-08-17T18:07:53.295Z,11.15
2022-08-17T18:10:30.068Z,12.30
2022-08-17T18:13:11.514Z,11.75
2022-08-17T18:15:51.142Z,10.90
2022-08-17T18:18:37.859Z,11.85
2022-08-17T18:21:16.787Z,11.63
2022-08-17T18:23:54.998Z,11.55
2022-08-17T18:26:55.095Z,11.38
2022-08-17T18:29:42.413Z,11.40
2022-08-17T18:32:29.724Z,11.90
2022-08-17T18:35:01.489Z,12.57
2022-08-17T18:37:48.865Z,12.63
2022-08-17T18:40:37.737Z,11.73
2022-08-17T18:43:11.216Z,14.50
2022-08-17T18:45:44.051Z,12.75
2022-08-17T18:48:21.722Z,12.63
2022-08-17T18:50:51.458Z,12.80
2022-08-17T18:53:33.512Z,12.57
2022-08-17T18:56:34.058Z,13.70
2022-08-17T18:59:17.930Z,14.15
2022-08-17T19:02:05.145Z,13.32
2022-08-17T19:04:41.480Z,14.52
2022-08-17T19:07:25.155Z,15.02
2022-08-17T19:09:58.258Z,14.77
2022-08-17T19:12:32.310Z,15.10
2022-08-17T19:15:01.537Z,13.77
2022-08-17T19:17:41.277Z,14.50
2022-08-17T19:20:16.138Z,14.80
2022-08-17T19:22:55.645Z,14.63
2022-08-17T19:25:28.185Z,14.93
2022-08-17T19:28:03.546Z,16.25
2022-08-17T19:30:32.916Z,14.73
2022-08-17T19:33:02.992Z,15.85
2022-08-17T19:35:42.217Z,15.85
2022-08-17T19:38:19.273Z,14.95
2022-08-17T19:40:58.701Z,14.68
2022-08-17T19:43:35.053Z,16.63
2022-08-17T19:46:11.941Z,15.23
2022-08-17T19:48:46.677Z,15.43
2022-08-17T19:51:21.241Z,16.00
2022-08-17T19:54:05.532Z,14.55
2022-08-17T19:56:41.187Z,15.27
2022-08-17T19:59:15.274Z,15.77
2022-08-17T20:01:47.935Z,15.32
2022-08-17T20:04:22.662Z,16.48
2022-08-17T20:07:04.936Z,15.27
2022-08-17T20:09:35.784Z,15.25
2022-08-17T20:12:08.045Z,16.33
2022-08-17T20:14:53.388Z,16.52
2022-08-17T20:17:28.360Z,16.58
2022-08-17T20:20:03.540Z,15.75
2022-08-17T20:22:49.656Z,16.77
2022-08-17T20:25:30.249Z,16.70
2022-08-17T20:28:05.716Z,17.45
2022-08-17T20:30:39.271Z,16.25
2022-08-17T20:33:12.490Z,17.75
2022-08-17T20:36:02.548Z,17.02
2022-08-17T20:38:40.957Z,16.58
2022-08-17T20:41:15.760Z,17.55
2022-08-17T20:43:49.100Z,17.67
2022-08-17T20:46:28.252Z,17.27
2022-08-17T20:48:59.042Z,18.40
2022-08-17T20:51:32.206Z,18.23
2022-08-17T20:54:09.572Z,18.63
2022-08-17T20:56:49.717Z,17.20
2022-08-17T20:59:56.400Z,17.75
2022-08-17T21:02:28.481Z,18.33
2022-08-17T21:05:04.049Z,17.10
2022-08-17T21:07:59.934Z,18.10
2022-08-17T21:10:38.004Z,17.98
2022-08-17T21:13:30.735Z,16.80
2022-08-17T21:16:02.531Z,17.80
2022-08-17T21:18:38.686Z,16.75
2022-08-17T21:21:19.355Z,18.55
2022-08-17T21:23:59.603Z,17.55
2022-08-17T21:26:32.839Z,17.88
2022-08-17T21:29:29.774Z,16.35
2022-08-17T21:32:24.208Z,17.17
2022-08-17T21:35:27.380Z,17.05
2022-08-17T21:38:03.701Z,16.88
2022-08-17T21:40:34.569Z,19.13
2022-08-17T21:43:09.171Z,18.60
2022-08-17T21:45:41.338Z,21.25
2022-08-17T21:48:14.896Z,17.83
2022-08-17T21:50:48.716Z,18.35
2022-08-17T21:53:27.046Z,17.83
2022-08-17T21:55:59.305Z,17.80
2022-08-17T21:58:30.955Z,18.25
2022-08-17T22:01:15.210Z,19.98
2022-08-17T22:03:43.990Z,20.40
2022-08-17T22:06:27.743Z,19.55
2022-08-17T22:09:05.745Z,19.85
2022-08-17T22:11:52.625Z,19.38
2022-08-17T22:14:22.650Z,19.45
2022-08-17T22:17:07.691Z,19.10
2022-08-17T22:19:36.937Z,19.17
2022-08-17T22:22:08.546Z,19.00
2022-08-17T22:24:37.983Z,20.17
2022-08-17T22:27:11.718Z,18.77
2022-08-17T22:29:59.067Z,19.13
2022-08-17T22:32:38.077Z,18.13
2022-08-17T22:35:37.505Z,19.45
2022-08-17T22:38:31.033Z,21.23
2022-08-17T22:41:16.704Z,19.50
2022-08-17T22:43:45.737Z,19.58
2022-08-17T22:46:15.084Z,19.67
2022-08-17T22:48:49.320Z,19.50
2022-08-17T22:51:20.957Z,19.48
2022-08-17T22:54:10.689Z,19.45
2022-08-17T22:56:57.235Z,19.10
2022-08-17T22:59:44.977Z,19.90
2022-08-17T23:02:20.471Z,19.95
2022-08-17T23:04:52.513Z,19.00
2022-08-17T23:07:22.041Z,18.65
2022-08-17T23:09:53.164Z,20.57
2022-08-17T23:12:26.509Z,20.25
2022-08-17T23:15:00.718Z,19.13
2022-08-17T23:17:33.849Z,18.90
2022-08-17T23:20:08.512Z,19.75
2022-08-17T23:22:37.859Z,19.65
2022-08-17T23:25:28.037Z,19.30
2022-08-17T23:27:58.558Z,18.05
2022-08-17T23:30:28.595Z,19.67
2022-08-17T23:32:59.627Z,20.33
2022-08-17T23:35:40.149Z,20.08
2022-08-17T23:38:09.906Z,21.77
2022-08-17T23:40:40.901Z,22.70
2022-08-17T23:43:23.665Z,22.50
2022-08-17T23:45:55.145Z,21.50
2022-08-17T23:48:34.973Z,20.65
2022-08-17T23:51:12.234Z,20.58
2022-08-17T23:53:46.286Z,21.10
2022-08-17T23:56:18.703Z,22.60
2022-08-17T23:58:47.153Z,19.80
